Floreffe, Belgium
Current Conditions -  °F | °C
As of 1:50 PM on Monday 22 Dec 2014 (Local Time) from EBCI Reporting Station
Broken Clouds Broken Clouds  
Wind Chill:   Ceiling: 700
Heat Index:   Visibility: 6mi
Dew Point:   Wind: 18mph
Humidity: 93%   Direction: 210°SSW
Pressure: 30.18"   Gusts: NA
Location:  50.43°N, 4.76°E
Report Text: EBCI 221250Z 21016KT 9999 BKN007 09/08 Q1022 TEMPO 23020G35KT
Loading
Personal Weather Stations






























Interactive Weather Map New forecast layout! Learn more

10-Day Weather Forecast

Advertisements
Track Severe Weather on mobile